Time;durP1;ratioP1;P1;durP2;ratioP2;P2;SDS_P1;SDS_P2;PMS_P1;PMS_P2;Temp;Humidity;BMP_temperature;BMP_pressure;BME280_temperature;BME280_humidity;BME280_pressure;Samples;Min_cycle;Max_cycle;Signal;HPM_P1;HPM_P2
2021/09/25 00:02:07;;;;;;;9.50;8.50;;;13.30;79.00;;;;;;6272483;23;20978;-75
2021/09/25 00:05:10;;;;;;;10.90;8.57;;;13.30;79.10;;;;;;6235438;28;20432;-75
2021/09/25 00:08:13;;;;;;;10.02;8.73;;;13.20;79.10;;;;;;6246139;28;20523;-75
2021/09/25 00:11:15;;;;;;;10.65;8.48;;;13.20;79.20;;;;;;6230679;28;20906;-75
2021/09/25 00:14:26;;;;;;;11.33;9.63;;;13.20;79.10;;;;;;6220748;28;20540;-75
2021/09/25 00:17:29;;;;;;;10.43;9.38;;;13.20;79.10;;;;;;6218568;28;20468;-76
2021/09/25 00:20:31;;;;;;;9.30;8.27;;;13.10;78.90;;;;;;6220923;28;20574;-76
2021/09/25 00:23:33;;;;;;;9.93;8.75;;;13.10;78.80;;;;;;6220519;28;20528;-75
2021/09/25 00:26:34;;;;;;;9.23;8.20;;;13.00;78.60;;;;;;6220416;28;20507;-76
2021/09/25 00:29:36;;;;;;;12.50;9.98;;;12.90;79.00;;;;;;6220090;28;20929;-76
2021/09/25 00:32:40;;;;;;;9.07;8.07;;;12.90;79.00;;;;;;6220779;28;20440;-75
2021/09/25 00:35:42;;;;;;;9.32;8.43;;;12.80;79.50;;;;;;6220225;28;20788;-76
2021/09/25 00:38:43;;;;;;;10.10;9.10;;;12.70;79.50;;;;;;6220298;28;20454;-76
2021/09/25 00:41:45;;;;;;;13.25;9.45;;;12.70;79.60;;;;;;6219957;28;20505;-76
2021/09/25 00:44:47;;;;;;;10.43;9.35;;;12.60;79.70;;;;;;6220619;28;20563;-75
2021/09/25 00:47:50;;;;;;;9.43;8.43;;;12.50;80.20;;;;;;6220164;28;20480;-76
2021/09/25 00:50:52;;;;;;;12.63;10.38;;;12.50;80.20;;;;;;6218688;28;20624;-76
2021/09/25 00:53:54;;;;;;;12.20;10.40;;;12.50;80.40;;;;;;6219333;28;20989;-75
2021/09/25 00:56:56;;;;;;;11.17;9.37;;;12.50;81.40;;;;;;6219884;28;20595;-76
2021/09/25 00:59:58;;;;;;;9.82;8.82;;;12.50;80.80;;;;;;6219809;28;20921;-76
2021/09/25 01:03:01;;;;;;;10.25;9.30;;;12.50;80.60;;;;;;6219802;28;20417;-76
2021/09/25 01:06:03;;;;;;;11.63;9.73;;;12.40;80.80;;;;;;6219906;28;20413;-75
2021/09/25 01:09:06;;;;;;;9.93;8.98;;;12.30;80.70;;;;;;6219655;28;20509;-76
2021/09/25 01:12:08;;;;;;;11.90;8.60;;;12.30;81.10;;;;;;6220226;28;20436;-75
2021/09/25 01:15:11;;;;;;;11.10;10.00;;;12.30;80.90;;;;;;6219143;28;20930;-76
2021/09/25 01:18:16;;;;;;;10.38;9.35;;;12.30;80.90;;;;;;6219652;28;21001;-75
2021/09/25 01:21:19;;;;;;;12.95;9.98;;;12.30;80.50;;;;;;6219057;28;20892;-75
2021/09/25 01:24:21;;;;;;;10.98;9.27;;;12.40;80.90;;;;;;6219864;28;20882;-75
2021/09/25 01:27:23;;;;;;;12.10;9.90;;;12.40;81.70;;;;;;6219298;28;20498;-76
2021/09/25 01:30:25;;;;;;;11.20;10.10;;;12.50;81.30;;;;;;6219184;28;20476;-75
2021/09/25 01:33:29;;;;;;;10.10;9.07;;;12.50;81.70;;;;;;6218902;28;20518;-76
2021/09/25 01:36:32;;;;;;;10.85;8.80;;;12.60;81.30;;;;;;6219823;28;20929;-76
2021/09/25 01:39:34;;;;;;;10.30;9.30;;;12.60;80.50;;;;;;6218894;28;20500;-75
2021/09/25 01:42:36;;;;;;;11.13;8.73;;;12.60;80.90;;;;;;6219351;28;20805;-76
2021/09/25 01:45:37;;;;;;;9.13;8.23;;;12.50;80.90;;;;;;6219359;28;20512;-76
2021/09/25 01:48:39;;;;;;;11.23;9.15;;;12.60;80.60;;;;;;6218432;28;20801;-76
2021/09/25 01:51:42;;;;;;;9.18;8.25;;;12.60;80.70;;;;;;6212963;28;20513;-75
2021/09/25 01:54:45;;;;;;;10.98;9.60;;;12.50;80.50;;;;;;6221995;28;20574;-75
2021/09/25 01:57:47;;;;;;;11.55;8.80;;;12.40;80.60;;;;;;6224013;28;20416;-76
2021/09/25 02:00:48;;;;;;;10.60;9.52;;;12.40;80.50;;;;;;6223830;28;20436;-75
2021/09/25 02:03:50;;;;;;;9.20;8.25;;;12.40;80.10;;;;;;6224452;28;21044;-76
2021/09/25 02:06:54;;;;;;;9.83;8.53;;;12.30;80.30;;;;;;6223923;28;20805;-76
2021/09/25 02:09:55;;;;;;;10.35;9.27;;;12.30;80.80;;;;;;6222388;28;20451;-75
2021/09/25 02:12:58;;;;;;;9.20;8.32;;;12.30;80.80;;;;;;6222990;28;20559;-76
2021/09/25 02:16:01;;;;;;;9.90;8.60;;;12.20;80.80;;;;;;6223952;28;20436;-75
2021/09/25 02:19:03;;;;;;;9.70;8.70;;;12.30;80.50;;;;;;6223274;28;20882;-75
2021/09/25 02:22:06;;;;;;;9.50;8.32;;;12.20;80.30;;;;;;6223612;28;20551;-75
2021/09/25 02:25:10;;;;;;;9.70;8.80;;;12.20;80.10;;;;;;6223468;28;20491;-76
2021/09/25 02:28:11;;;;;;;9.50;8.52;;;12.10;80.30;;;;;;6199585;28;20465;-76
2021/09/25 02:31:14;;;;;;;12.18;8.82;;;12.10;80.10;;;;;;6198721;28;20505;-76
2021/09/25 02:34:16;;;;;;;9.27;8.38;;;12.10;80.00;;;;;;6198493;28;20501;-76
2021/09/25 02:37:19;;;;;;;10.25;8.32;;;12.00;79.90;;;;;;6198882;28;21010;-76
2021/09/25 02:40:23;;;;;;;11.43;9.52;;;12.00;80.00;;;;;;6199197;28;20438;-75
2021/09/25 02:43:25;;;;;;;9.02;8.13;;;12.00;79.90;;;;;;6198812;28;20427;-76
2021/09/25 02:46:27;;;;;;;8.75;7.85;;;11.90;79.80;;;;;;6198620;28;20426;-76
2021/09/25 02:49:29;;;;;;;11.30;8.52;;;11.90;79.60;;;;;;6199174;28;20509;-76
2021/09/25 02:52:32;;;;;;;8.82;8.02;;;11.80;79.30;;;;;;6221481;28;20511;-76
2021/09/25 02:55:34;;;;;;;11.60;8.35;;;11.80;79.30;;;;;;6222510;28;20413;-75
2021/09/25 02:58:36;;;;;;;9.17;8.37;;;11.70;79.60;;;;;;6222643;28;20491;-76
2021/09/25 03:01:38;;;;;;;8.90;8.00;;;11.70;79.80;;;;;;6222404;28;20976;-76
2021/09/25 03:04:40;;;;;;;9.20;8.02;;;11.70;79.70;;;;;;6222418;28;20479;-76
2021/09/25 03:07:43;;;;;;;9.97;8.17;;;11.70;80.20;;;;;;6222978;28;20459;-76
2021/09/25 03:10:45;;;;;;;9.45;8.52;;;11.60;80.10;;;;;;6222116;28;20421;-76
2021/09/25 03:13:47;;;;;;;9.27;8.25;;;11.60;79.80;;;;;;6222046;28;20417;-76
2021/09/25 03:16:49;;;;;;;9.07;8.18;;;11.60;79.70;;;;;;6222380;28;20478;-76
2021/09/25 03:19:51;;;;;;;8.50;7.68;;;11.60;80.30;;;;;;6222407;28;21651;-76
2021/09/25 03:22:54;;;;;;;9.90;8.13;;;11.60;79.60;;;;;;6222327;28;20514;-76
2021/09/25 03:25:56;;;;;;;9.93;8.40;;;11.60;79.30;;;;;;6222229;28;20551;-76
2021/09/25 03:28:58;;;;;;;9.13;8.07;;;11.50;79.80;;;;;;6221664;28;20554;-76
2021/09/25 03:31:59;;;;;;;9.25;7.88;;;11.50;79.90;;;;;;6222255;28;20436;-75
2021/09/25 03:35:01;;;;;;;8.83;7.73;;;11.50;79.90;;;;;;6222085;28;20503;-76
2021/09/25 03:38:04;;;;;;;8.50;7.70;;;11.50;79.70;;;;;;6221961;28;20806;-75
2021/09/25 03:41:06;;;;;;;10.20;7.80;;;11.50;79.90;;;;;;6221388;28;20587;-76
2021/09/25 03:44:08;;;;;;;9.73;8.07;;;11.40;79.60;;;;;;6222202;28;20471;-76
2021/09/25 03:47:10;;;;;;;11.25;8.30;;;11.40;79.70;;;;;;6221919;28;20482;-76
2021/09/25 03:50:13;;;;;;;9.43;7.70;;;11.40;79.80;;;;;;6221195;28;20500;-75
2021/09/25 03:53:17;;;;;;;8.70;7.53;;;11.40;79.60;;;;;;6219411;28;20495;-75
2021/09/25 03:56:18;;;;;;;10.02;8.38;;;11.30;79.60;;;;;;6221717;28;21001;-75
2021/09/25 03:59:20;;;;;;;9.90;7.97;;;11.30;79.70;;;;;;6221214;28;20498;-76
2021/09/25 04:02:22;;;;;;;8.95;8.07;;;11.30;79.20;;;;;;6220870;28;20554;-75
2021/09/25 04:05:24;;;;;;;10.93;8.63;;;11.20;79.50;;;;;;6221667;28;20421;-75
2021/09/25 04:08:28;;;;;;;8.43;7.68;;;11.20;79.50;;;;;;6221418;28;20436;-75
2021/09/25 04:11:29;;;;;;;9.17;8.07;;;11.10;79.30;;;;;;6220619;28;20991;-75
2021/09/25 04:14:31;;;;;;;9.63;7.38;;;11.10;79.70;;;;;;6221002;28;20929;-75
2021/09/25 04:17:35;;;;;;;8.85;7.95;;;11.10;79.90;;;;;;6220264;28;20910;-75
2021/09/25 04:20:38;;;;;;;9.23;8.30;;;11.10;79.80;;;;;;6221106;28;20437;-75
2021/09/25 04:23:41;;;;;;;9.55;8.63;;;11.00;79.80;;;;;;6221079;28;20481;-75
2021/09/25 04:26:43;;;;;;;8.80;8.00;;;10.90;80.00;;;;;;6220673;28;20427;-75
2021/09/25 04:29:45;;;;;;;12.07;8.68;;;11.00;80.20;;;;;;6220382;28;20505;-75
2021/09/25 04:32:46;;;;;;;9.43;8.32;;;10.90;80.30;;;;;;6220135;28;20838;-75
2021/09/25 04:35:48;;;;;;;10.05;8.70;;;10.90;79.80;;;;;;6220032;28;20926;-75
2021/09/25 04:38:51;;;;;;;9.40;8.40;;;10.90;79.50;;;;;;6220363;28;20417;-75
2021/09/25 04:41:54;;;;;;;10.03;7.70;;;10.90;80.60;;;;;;6220009;28;20582;-76
2021/09/25 04:44:55;;;;;;;9.43;8.30;;;10.90;79.70;;;;;;6220584;28;20482;-75
2021/09/25 04:47:58;;;;;;;8.80;7.90;;;10.80;79.10;;;;;;6220380;28;20463;-75
2021/09/25 04:50:59;;;;;;;9.30;8.40;;;10.70;79.80;;;;;;6219589;28;20563;-75
2021/09/25 04:54:04;;;;;;;8.68;7.03;;;10.70;79.70;;;;;;6218361;28;20431;-75
2021/09/25 04:57:06;;;;;;;7.68;6.88;;;10.70;79.70;;;;;;6220248;28;20462;-75
2021/09/25 05:00:09;;;;;;;8.27;7.22;;;10.60;79.60;;;;;;6219699;28;20567;-75
2021/09/25 05:03:11;;;;;;;10.45;7.32;;;10.70;79.60;;;;;;6219823;28;20476;-75
2021/09/25 05:06:13;;;;;;;11.55;7.40;;;10.70;79.50;;;;;;6220151;28;20427;-75
2021/09/25 05:09:18;;;;;;;8.80;7.68;;;10.60;79.40;;;;;;6219439;28;20423;-75
2021/09/25 05:12:20;;;;;;;11.57;8.30;;;10.60;79.60;;;;;;6219885;28;20468;-74
2021/09/25 05:15:22;;;;;;;13.02;7.65;;;10.60;79.30;;;;;;6219648;28;20991;-75
2021/09/25 05:18:24;;;;;;;10.13;7.90;;;10.60;79.30;;;;;;6219863;28;20424;-75
2021/09/25 05:21:25;;;;;;;9.63;8.13;;;10.60;79.20;;;;;;6219235;28;20421;-75
2021/09/25 05:24:29;;;;;;;8.50;7.60;;;10.60;79.40;;;;;;6220015;28;20515;-75
2021/09/25 05:27:30;;;;;;;12.40;8.57;;;10.60;79.40;;;;;;6218787;28;20569;-75
2021/09/25 05:30:32;;;;;;;14.48;8.13;;;10.50;79.60;;;;;;6218902;28;20421;-75
2021/09/25 05:33:34;;;;;;;10.45;7.75;;;10.50;79.60;;;;;;6219389;28;20413;-75
2021/09/25 05:36:36;;;;;;;16.45;8.27;;;10.50;79.60;;;;;;6219865;28;20809;-75
2021/09/25 05:39:39;;;;;;;13.50;9.65;;;10.50;79.30;;;;;;6219177;28;20559;-75
2021/09/25 05:42:41;;;;;;;12.13;8.50;;;10.50;79.30;;;;;;6219463;28;20416;-75
2021/09/25 05:45:43;;;;;;;14.00;9.15;;;10.50;79.70;;;;;;6219268;28;20551;-75
2021/09/25 05:48:47;;;;;;;10.83;8.17;;;10.60;79.80;;;;;;6219270;28;20432;-74
2021/09/25 05:51:50;;;;;;;11.75;8.23;;;10.60;80.00;;;;;;6219712;28;20436;-75
2021/09/25 05:54:53;;;;;;;13.25;9.70;;;10.70;79.60;;;;;;6216940;28;20428;-75
2021/09/25 05:57:58;;;;;;;15.30;8.82;;;10.70;79.60;;;;;;6219526;28;20448;-75
2021/09/25 06:01:00;;;;;;;8.90;8.00;;;10.70;79.40;;;;;;6245181;23;20401;-77
2021/09/25 06:04:02;;;;;;;8.63;7.63;;;10.80;79.10;;;;;;6269671;28;20566;-77
2021/09/25 06:07:05;;;;;;;9.43;7.78;;;10.80;80.00;;;;;;6268355;28;21058;-77
2021/09/25 06:10:09;;;;;;;8.82;7.38;;;10.90;79.70;;;;;;6264978;28;20419;-77
2021/09/25 06:13:11;;;;;;;10.30;7.60;;;10.90;79.70;;;;;;6243113;28;20575;-77
2021/09/25 06:16:13;;;;;;;8.60;6.75;;;11.00;79.60;;;;;;6243854;28;20460;-77
2021/09/25 06:19:16;;;;;;;10.18;7.75;;;11.10;79.40;;;;;;6243172;28;20449;-77
2021/09/25 06:22:18;;;;;;;9.85;7.78;;;11.20;79.50;;;;;;6243399;28;20785;-78
2021/09/25 06:25:21;;;;;;;12.35;7.75;;;11.40;79.40;;;;;;6243234;28;20484;-78
2021/09/25 06:28:23;;;;;;;7.50;6.75;;;11.50;79.00;;;;;;6243644;28;20513;-77
2021/09/25 06:31:25;;;;;;;12.15;7.28;;;11.70;79.20;;;;;;6243151;28;20573;-77
2021/09/25 06:34:26;;;;;;;12.80;7.30;;;11.80;79.10;;;;;;6243260;28;20521;-77
2021/09/25 06:37:30;;;;;;;10.85;7.38;;;12.00;78.90;;;;;;6243386;28;20411;-77
2021/09/25 06:40:33;;;;;;;8.93;7.57;;;12.10;78.90;;;;;;6246102;28;20430;-77
2021/09/25 06:43:35;;;;;;;11.88;6.93;;;12.30;78.90;;;;;;6244480;28;20481;-78
2021/09/25 06:46:37;;;;;;;9.88;7.45;;;12.60;79.00;;;;;;6247497;28;20458;-77
2021/09/25 06:49:38;;;;;;;12.73;8.13;;;12.80;78.40;;;;;;6246977;28;20766;-77
2021/09/25 06:52:40;;;;;;;9.15;6.15;;;13.00;78.10;;;;;;6247646;28;20520;-78
2021/09/25 06:55:44;;;;;;;10.53;7.30;;;13.30;78.20;;;;;;6246239;28;20514;-77
2021/09/25 06:58:46;;;;;;;9.00;6.47;;;13.60;77.80;;;;;;6247291;28;20443;-78
2021/09/25 07:01:47;;;;;;;10.77;6.65;;;14.00;77.50;;;;;;6247289;28;20419;-77
2021/09/25 07:04:49;;;;;;;8.15;6.45;;;14.40;76.00;;;;;;6247546;28;20532;-78
2021/09/25 07:07:51;;;;;;;6.35;5.75;;;14.90;75.20;;;;;;6242074;28;21069;-78
2021/09/25 07:10:54;;;;;;;8.35;5.68;;;15.20;74.40;;;;;;6246346;28;20411;-78
2021/09/25 07:13:57;;;;;;;8.32;6.28;;;15.70;73.70;;;;;;6247016;28;20561;-78
2021/09/25 07:16:59;;;;;;;6.95;6.25;;;16.00;73.20;;;;;;6248311;28;20537;-79
2021/09/25 07:20:00;;;;;;;7.45;5.18;;;16.40;71.40;;;;;;6248609;28;20466;-78
2021/09/25 07:23:02;;;;;;;7.13;6.35;;;16.80;70.00;;;;;;6247938;28;20903;-79
2021/09/25 07:26:06;;;;;;;7.68;6.50;;;17.10;69.00;;;;;;6240191;28;20417;-79
2021/09/25 07:29:08;;;;;;;6.38;5.75;;;17.50;67.60;;;;;;6248316;28;20526;-79
2021/09/25 07:32:09;;;;;;;8.87;6.17;;;17.80;67.60;;;;;;6249531;28;20913;-79
2021/09/25 07:35:13;;;;;;;7.88;7.07;;;18.30;66.80;;;;;;6249069;28;20444;-79
2021/09/25 07:38:15;;;;;;;7.22;6.57;;;18.60;65.40;;;;;;6250311;28;20474;-80
2021/09/25 07:41:18;;;;;;;6.90;6.27;;;19.00;64.30;;;;;;6249528;28;20923;-80
2021/09/25 07:44:20;;;;;;;9.45;5.85;;;19.30;63.50;;;;;;6249733;28;20435;-77
2021/09/25 07:47:22;;;;;;;8.98;6.38;;;19.50;63.80;;;;;;6247154;28;20875;-78
2021/09/25 07:50:24;;;;;;;8.10;6.38;;;19.70;61.90;;;;;;6247322;28;20435;-78
2021/09/25 07:53:26;;;;;;;7.53;5.40;;;20.00;61.60;;;;;;6247802;28;20410;-78
2021/09/25 07:56:29;;;;;;;6.68;5.80;;;20.20;61.40;;;;;;6243908;28;20445;-78
2021/09/25 07:59:31;;;;;;;6.50;5.90;;;20.30;60.60;;;;;;6247492;28;21011;-78
2021/09/25 08:02:33;;;;;;;6.65;5.18;;;20.50;60.20;;;;;;6247824;28;20516;-78
2021/09/25 08:05:35;;;;;;;8.20;6.65;;;20.70;59.80;;;;;;6247352;28;20553;-78
2021/09/25 08:08:37;;;;;;;7.80;6.55;;;20.70;61.70;;;;;;6247031;28;20493;-78
2021/09/25 08:11:40;;;;;;;7.88;6.22;;;20.90;60.50;;;;;;6246986;28;20415;-78
2021/09/25 08:14:42;;;;;;;7.13;6.13;;;21.10;59.60;;;;;;6247194;28;20469;-78
2021/09/25 08:17:45;;;;;;;7.68;6.78;;;21.20;60.00;;;;;;6247019;28;20459;-78
2021/09/25 08:20:47;;;;;;;6.97;6.15;;;21.20;58.50;;;;;;6247849;28;20430;-78
2021/09/25 08:23:49;;;;;;;7.13;5.90;;;21.20;58.80;;;;;;6248092;28;20526;-78
2021/09/25 08:26:52;;;;;;;6.97;6.28;;;21.30;60.00;;;;;;6246570;28;20780;-78
2021/09/25 08:29:54;;;;;;;6.73;5.83;;;21.40;58.80;;;;;;6247109;28;20458;-78
2021/09/25 08:32:57;;;;;;;7.10;6.38;;;21.50;59.20;;;;;;6247341;28;20427;-78
2021/09/25 08:35:59;;;;;;;7.03;5.72;;;21.70;58.00;;;;;;6246696;28;20434;-78
2021/09/25 08:39:01;;;;;;;8.85;6.65;;;21.90;58.00;;;;;;6246169;28;20928;-78
2021/09/25 08:42:05;;;;;;;8.98;6.95;;;22.10;57.40;;;;;;6246184;28;20470;-78
2021/09/25 08:45:08;;;;;;;15.48;7.60;;;22.30;56.60;;;;;;6248288;28;20617;-78
2021/09/25 08:48:11;;;;;;;8.25;7.45;;;22.60;56.20;;;;;;6247535;28;20912;-78
2021/09/25 08:51:13;;;;;;;9.40;6.85;;;22.60;55.70;;;;;;6249582;28;20425;-79
2021/09/25 08:54:15;;;;;;;13.23;7.43;;;22.50;56.60;;;;;;6246472;28;20415;-76
2021/09/25 08:57:18;;;;;;;9.82;6.50;;;22.50;56.40;;;;;;6243661;28;20412;-76
2021/09/25 09:00:38;;;;;;;8.80;6.30;;;22.40;56.80;;;;;;6244107;28;20488;-76
2021/09/25 09:03:44;;;;;;;9.88;6.68;;;22.60;57.20;;;;;;6220347;28;20413;-76
2021/09/25 09:06:49;;;;;;;8.98;5.97;;;22.90;55.80;;;;;;6220058;28;20420;-75
2021/09/25 09:09:51;;;;;;;11.95;6.88;;;23.10;55.10;;;;;;6219692;28;20416;-76
2021/09/25 09:12:55;;;;;;;8.00;6.00;;;23.20;55.00;;;;;;6220244;28;20432;-76
2021/09/25 09:15:57;;;;;;;10.20;7.35;;;23.40;54.90;;;;;;6220425;28;20525;-77
2021/09/25 09:19:00;;;;;;;10.57;6.93;;;23.40;54.00;;;;;;6219546;28;20500;-77
2021/09/25 09:22:04;;;;;;;8.45;6.30;;;23.40;54.20;;;;;;6219684;28;20437;-77
2021/09/25 09:25:07;;;;;;;7.57;5.50;;;23.60;54.00;;;;;;6219551;28;20408;-77
2021/09/25 09:28:14;;;;;;;10.02;7.13;;;23.80;53.50;;;;;;6219882;28;20441;-77
2021/09/25 09:31:17;;;;;;;11.15;6.25;;;24.00;53.00;;;;;;6219616;28;20475;-77
2021/09/25 09:34:18;;;;;;;8.23;6.57;;;24.30;52.50;;;;;;6219647;28;20440;-77
2021/09/25 09:37:21;;;;;;;10.97;6.20;;;24.50;51.10;;;;;;6219495;28;20483;-77
2021/09/25 09:40:23;;;;;;;7.40;6.30;;;24.50;51.00;;;;;;6220191;28;20432;-77
2021/09/25 09:43:26;;;;;;;9.00;6.20;;;24.50;51.20;;;;;;6219661;28;20421;-77
2021/09/25 09:46:44;;;;;;;6.50;5.80;;;24.70;50.80;;;;;;6221759;28;20485;-77
2021/09/25 09:49:46;;;;;;;7.38;5.38;;;24.90;50.00;;;;;;6242091;28;20839;-77
2021/09/25 09:52:48;;;;;;;8.18;5.63;;;25.00;49.80;;;;;;6243517;28;20529;-77
2021/09/25 09:55:50;;;;;;;7.13;5.70;;;25.00;50.60;;;;;;6243652;28;20493;-77
2021/09/25 09:59:01;;;;;;;5.82;5.15;;;25.10;50.20;;;;;;6241963;28;20439;-77
2021/09/25 10:02:03;;;;;;;6.72;5.57;;;25.30;49.80;;;;;;6243544;28;20602;-77
2021/09/25 10:05:06;;;;;;;16.73;9.17;;;25.50;49.10;;;;;;6243538;28;20829;-77
2021/09/25 10:08:08;;;;;;;13.80;10.37;;;25.70;48.40;;;;;;6243864;28;20474;-77
2021/09/25 10:11:10;;;;;;;7.03;5.95;;;26.10;47.70;;;;;;6243237;28;20423;-78
2021/09/25 10:14:17;;;;;;;20.98;18.77;;;26.50;46.70;;;;;;6244999;28;20415;-79
2021/09/25 10:17:19;;;;;;;5.75;5.03;;;26.70;46.00;;;;;;6248711;28;20407;-78
2021/09/25 10:20:21;;;;;;;5.80;4.88;;;26.90;45.70;;;;;;6248677;28;20512;-78
2021/09/25 10:23:25;;;;;;;6.93;5.20;;;27.10;45.20;;;;;;6247985;28;20465;-78
2021/09/25 10:26:27;;;;;;;7.72;6.45;;;27.10;45.20;;;;;;6247963;28;20560;-79
2021/09/25 10:29:31;;;;;;;6.00;5.43;;;27.20;44.40;;;;;;6248010;28;20496;-78
2021/09/25 10:32:35;;;;;;;6.65;6.05;;;27.20;44.30;;;;;;6248992;28;20431;-77
2021/09/25 10:35:37;;;;;;;8.95;5.57;;;27.30;44.50;;;;;;6248427;28;20446;-78
2021/09/25 10:38:39;;;;;;;6.80;5.22;;;27.30;43.70;;;;;;6247951;28;20931;-78
2021/09/25 10:41:44;;;;;;;6.80;4.82;;;27.50;44.10;;;;;;6247906;28;20422;-77
2021/09/25 10:44:50;;;;;;;9.40;5.35;;;27.80;43.60;;;;;;6247427;28;20512;-77
2021/09/25 10:48:13;;;;;;;5.68;5.18;;;27.80;43.30;;;;;;6248416;28;20526;-79
2021/09/25 10:51:17;;;;;;;8.63;5.22;;;27.80;43.70;;;;;;6247524;28;20419;-78
2021/09/25 10:54:18;;;;;;;5.80;5.30;;;27.90;42.90;;;;;;6247637;28;20592;-78
2021/09/25 10:57:20;;;;;;;7.80;5.95;;;27.90;43.90;;;;;;6247153;28;20835;-78
2021/09/25 11:00:24;;;;;;;7.97;5.40;;;28.20;43.50;;;;;;6246081;28;20516;-78
2021/09/25 11:03:52;;;;;;;7.63;5.97;;;28.40;42.20;;;;;;6247314;28;20416;-79
2021/09/25 11:06:56;;;;;;;8.02;5.25;;;28.60;42.20;;;;;;6247111;28;20415;-78
2021/09/25 11:09:58;;;;;;;9.00;5.53;;;28.80;41.10;;;;;;6246923;28;20429;-78
2021/09/25 11:13:00;;;;;;;7.20;5.88;;;28.80;41.60;;;;;;6246909;28;20441;-77
2021/09/25 11:16:05;;;;;;;6.78;6.13;;;28.60;40.70;;;;;;6246994;28;20778;-78
2021/09/25 11:19:09;;;;;;;6.00;5.50;;;28.00;41.40;;;;;;6246737;28;20438;-78
2021/09/25 11:22:15;;;;;;;8.07;6.60;;;27.90;41.60;;;;;;6247016;28;20422;-77
2021/09/25 11:25:21;;;;;;;9.10;5.35;;;27.90;41.20;;;;;;6245396;28;20501;-77
2021/09/25 11:28:23;;;;;;;7.47;6.10;;;27.90;42.30;;;;;;6247488;28;20430;-77
2021/09/25 11:31:26;;;;;;;7.10;5.85;;;28.10;41.50;;;;;;6246169;28;20488;-77
2021/09/25 11:34:31;;;;;;;5.93;5.43;;;28.40;41.90;;;;;;6246692;28;20422;-77
2021/09/25 11:37:33;;;;;;;8.02;5.28;;;28.50;41.30;;;;;;6246372;28;20415;-78
2021/09/25 11:40:38;;;;;;;6.95;4.90;;;29.00;41.10;;;;;;6246277;28;20530;-79
2021/09/25 11:43:40;;;;;;;6.68;5.53;;;29.10;41.00;;;;;;6246563;28;20468;-78
2021/09/25 11:46:44;;;;;;;9.93;5.03;;;29.10;41.10;;;;;;6246066;28;20867;-77
2021/09/25 11:49:47;;;;;;;10.18;5.18;;;29.10;41.30;;;;;;6246251;28;20502;-77
2021/09/25 11:52:51;;;;;;;5.88;4.80;;;29.30;40.70;;;;;;6246281;28;20483;-78
2021/09/25 11:55:52;;;;;;;5.80;5.10;;;29.30;41.30;;;;;;6246900;28;20572;-77
2021/09/25 11:58:54;;;;;;;78.65;70.22;;;29.00;40.70;;;;;;6245239;28;20481;-78
2021/09/25 12:01:57;;;;;;;13.87;12.47;;;29.20;41.30;;;;;;6259468;23;20472;-77
2021/09/25 12:04:59;;;;;;;8.07;7.35;;;29.60;40.30;;;;;;6239019;28;20432;-77
2021/09/25 12:08:03;;;;;;;5.97;5.10;;;29.80;39.00;;;;;;6230670;28;20455;-77
2021/09/25 12:11:07;;;;;;;6.73;4.43;;;30.10;38.80;;;;;;6221962;28;20418;-77
2021/09/25 12:14:09;;;;;;;9.68;5.07;;;29.80;38.60;;;;;;6222068;28;20425;-77
2021/09/25 12:17:14;;;;;;;5.72;5.13;;;29.50;40.10;;;;;;6221451;28;20408;-77
2021/09/25 12:20:20;;;;;;;5.25;4.35;;;29.50;39.70;;;;;;6221854;28;20433;-77
2021/09/25 12:23:25;;;;;;;6.38;4.45;;;29.60;39.40;;;;;;6223508;28;20507;-77
2021/09/25 12:26:29;;;;;;;6.90;4.97;;;29.90;39.00;;;;;;6245788;28;20972;-77
2021/09/25 12:29:34;;;;;;;4.55;4.15;;;29.90;38.60;;;;;;6245921;28;20580;-77
2021/09/25 12:32:37;;;;;;;5.18;4.25;;;29.80;39.80;;;;;;6246526;28;20435;-78
2021/09/25 12:35:40;;;;;;;8.63;7.80;;;29.80;38.80;;;;;;6246561;28;20468;-78
2021/09/25 12:38:45;;;;;;;20.02;18.00;;;30.20;38.30;;;;;;6245964;28;20907;-77
2021/09/25 12:41:48;;;;;;;6.55;5.97;;;30.70;37.90;;;;;;6246563;28;20443;-77
2021/09/25 12:44:54;;;;;;;7.27;6.60;;;31.10;37.00;;;;;;6246079;28;20636;-77
2021/09/25 12:48:13;;;;;;;54.07;48.53;;;31.40;36.80;;;;;;6246757;28;20931;-77
2021/09/25 12:51:15;;;;;;;9.55;6.32;;;30.80;37.00;;;;;;6245457;28;20482;-77
2021/09/25 12:54:19;;;;;;;4.20;3.85;;;30.50;38.20;;;;;;6245387;28;20961;-78
2021/09/25 12:57:23;;;;;;;4.72;4.28;;;30.40;38.00;;;;;;6245437;28;20411;-78
2021/09/25 13:00:27;;;;;;;4.20;3.80;;;30.50;38.10;;;;;;6245116;28;20809;-77
2021/09/25 13:03:31;;;;;;;5.00;4.60;;;30.80;37.90;;;;;;6243451;28;20419;-77
2021/09/25 13:06:42;;;;;;;5.30;4.85;;;31.10;37.00;;;;;;6244635;28;20411;-76
2021/09/25 13:09:46;;;;;;;5.50;4.30;;;31.30;36.80;;;;;;6245395;28;20422;-76
2021/09/25 13:12:49;;;;;;;6.53;4.82;;;31.40;36.80;;;;;;6245275;28;20478;-78
2021/09/25 13:15:51;;;;;;;6.37;4.63;;;31.40;37.80;;;;;;6245923;28;20517;-77
2021/09/25 13:18:58;;;;;;;4.82;4.40;;;31.50;38.20;;;;;;6244096;28;20422;-77
2021/09/25 13:22:05;;;;;;;4.50;4.10;;;31.70;37.20;;;;;;6243985;28;20549;-77
2021/09/25 13:25:07;;;;;;;12.10;5.00;;;31.90;36.60;;;;;;6244285;28;20573;-78
2021/09/25 13:28:10;;;;;;;6.10;4.32;;;31.90;36.50;;;;;;6246227;28;20478;-77
2021/09/25 13:31:12;;;;;;;5.40;4.53;;;32.00;37.30;;;;;;6244904;28;20419;-77
2021/09/25 13:34:15;;;;;;;5.20;4.68;;;32.10;36.60;;;;;;6245201;28;20419;-77
2021/09/25 13:37:17;;;;;;;5.03;4.30;;;32.10;36.30;;;;;;6244523;28;20557;-77
2021/09/25 13:40:19;;;;;;;5.05;4.55;;;31.70;36.80;;;;;;6244777;28;20570;-77
2021/09/25 13:43:21;;;;;;;4.10;3.63;;;31.30;38.50;;;;;;6244233;28;20418;-77
2021/09/25 13:46:23;;;;;;;5.50;4.70;;;31.00;38.50;;;;;;6244635;28;20897;-77
2021/09/25 13:49:26;;;;;;;4.32;3.92;;;30.90;38.50;;;;;;6243357;28;20506;-77
2021/09/25 13:52:28;;;;;;;4.30;3.90;;;30.70;39.20;;;;;;6244750;28;20443;-77
2021/09/25 13:55:30;;;;;;;6.15;4.70;;;30.80;39.00;;;;;;6244507;28;20513;-77
2021/09/25 13:58:32;;;;;;;6.28;4.57;;;30.80;39.10;;;;;;6244589;28;20588;-77
2021/09/25 14:01:34;;;;;;;6.75;4.43;;;30.50;39.20;;;;;;6244531;28;20493;-77
2021/09/25 14:04:38;;;;;;;6.50;4.88;;;30.10;39.80;;;;;;6243818;28;20466;-77
2021/09/25 14:07:40;;;;;;;4.95;4.45;;;29.70;40.80;;;;;;6244025;28;20489;-77
2021/09/25 14:10:42;;;;;;;6.95;4.65;;;29.50;41.10;;;;;;6243161;28;20498;-77
2021/09/25 14:13:44;;;;;;;7.22;4.07;;;29.50;41.20;;;;;;6243745;28;20501;-77
2021/09/25 14:16:46;;;;;;;4.37;3.97;;;29.50;41.80;;;;;;6243857;28;20879;-77
2021/09/25 14:19:49;;;;;;;7.68;4.65;;;29.50;41.50;;;;;;6243711;28;20947;-77
2021/09/25 14:22:51;;;;;;;5.03;3.70;;;29.60;42.00;;;;;;6242891;28;20463;-77
2021/09/25 14:25:53;;;;;;;7.30;4.25;;;29.80;41.70;;;;;;6243893;28;20498;-77
2021/09/25 14:28:55;;;;;;;4.38;3.65;;;29.80;41.10;;;;;;6243264;28;20486;-77
2021/09/25 14:32:00;;;;;;;3.93;3.40;;;30.00;41.80;;;;;;6244004;28;20478;-77
2021/09/25 14:35:03;;;;;;;4.72;3.88;;;30.30;40.90;;;;;;6243491;28;20433;-77
2021/09/25 14:38:06;;;;;;;4.97;4.47;;;30.50;40.50;;;;;;6244008;28;20559;-77
2021/09/25 14:41:08;;;;;;;5.53;4.40;;;30.60;39.90;;;;;;6243284;28;20418;-77
2021/09/25 14:44:10;;;;;;;4.68;3.88;;;30.50;40.00;;;;;;6244137;28;21093;-77
2021/09/25 14:47:11;;;;;;;9.13;4.68;;;30.20;40.40;;;;;;6243861;28;20450;-77
2021/09/25 14:50:17;;;;;;;6.38;4.93;;;30.10;40.50;;;;;;6243253;28;20450;-77
2021/09/25 14:53:18;;;;;;;4.82;4.13;;;30.20;40.90;;;;;;6243511;28;20442;-78
2021/09/25 14:56:20;;;;;;;6.43;4.77;;;30.20;40.80;;;;;;6244223;28;20827;-78
2021/09/25 14:59:22;;;;;;;5.13;4.23;;;30.20;40.80;;;;;;6243725;28;20419;-78
2021/09/25 15:02:25;;;;;;;5.93;4.90;;;30.30;41.60;;;;;;6247732;28;20506;-77
2021/09/25 15:05:28;;;;;;;5.03;4.23;;;30.10;40.30;;;;;;6246447;28;20502;-77
2021/09/25 15:08:30;;;;;;;6.53;4.78;;;29.90;41.10;;;;;;6248680;28;20442;-77
2021/09/25 15:11:33;;;;;;;6.70;4.35;;;29.60;41.60;;;;;;6248633;28;20465;-78
2021/09/25 15:14:34;;;;;;;4.73;4.33;;;29.50;41.90;;;;;;6248707;28;20421;-78
2021/09/25 15:17:36;;;;;;;5.95;4.60;;;29.30;42.60;;;;;;6248610;28;20438;-77
2021/09/25 15:20:40;;;;;;;5.23;4.73;;;28.90;43.00;;;;;;6247376;28;20580;-78
2021/09/25 15:23:42;;;;;;;5.43;4.93;;;28.70;44.50;;;;;;6248222;28;20485;-77
2021/09/25 15:26:44;;;;;;;5.15;4.50;;;28.50;45.20;;;;;;6248014;28;20474;-78
2021/09/25 15:29:45;;;;;;;5.28;4.78;;;28.30;45.20;;;;;;6247579;28;20500;-78
2021/09/25 15:32:47;;;;;;;4.97;4.57;;;28.10;46.10;;;;;;6247699;28;20520;-78
2021/09/25 15:35:51;;;;;;;5.38;4.38;;;28.00;46.90;;;;;;6247865;28;20521;-77
2021/09/25 15:38:52;;;;;;;5.55;4.32;;;27.90;46.60;;;;;;6247942;28;20471;-78
2021/09/25 15:41:54;;;;;;;5.82;5.32;;;27.70;47.20;;;;;;6247336;28;20443;-77
2021/09/25 15:44:56;;;;;;;8.45;5.05;;;27.50;48.10;;;;;;6248704;28;20485;-77
2021/09/25 15:47:59;;;;;;;5.07;4.68;;;27.40;48.60;;;;;;6247612;28;20435;-77